PACV METAR and TAF weather

Enter ICAO airport designator
Station Type Date Time Source
PACV METAR 2020/09/18 20:08 UTC NOAA

PACV 182008Z VRB04KT 6SM -RA BR BKN009 OVC014 09/08 A2975 RMK AO2 CIG 006V012 P0000 T00940083


Station Type Date Time Source
PACV Decoded METAR 2020/09/18 20:08 UTC NOAA

MERLE K. SMITH AIRPORT, AK, United States (PACV) 60-30N 145-29W 13M
Sep 18, 2020 - 04:08 PM EDT / 2020.09.18 2008 UTC
Wind: Variable at 5 MPH (4 KT):0
Visibility: 6 mile(s):0
Sky conditions: overcast
Weather: light rain; mist
Precipitation last hour: A trace
Temperature: 48.9 F (9.4 C)
Dew Point: 46.9 F (8.3 C)
Relative Humidity: 92%
Pressure (altimeter): 29.75 in. Hg (1007 hPa)
ob: PACV 182008Z VRB04KT 6SM -RA BR BKN009 OVC014 09/08 A2975 RMK AO2 CIG 006V012 P0000 T00940083
cycle: 20

Station Type Date Time Source
PACV TAF 2020/09/18 20:51 UTC NOAA

TAF
AMD PACV 181948Z 1820/1918 11006KT 4SM -RA BR BKN025 OVC045
TEMPO 1820/1822 2SM RA BR OVC010
FM190000 VRB04KT P6SM -RA OVC050
FM190600 08003KT P6SM -RA OVC030

Example: see airport list